Hutchinson Island, Florida
Current Conditions -  °F | °C
As of 5:53 PM on Wednesday 22 Oct 2014 (Local Time) from KFPR Reporting Station
Few Clouds Few Clouds  
Wind Chill: 79°   Ceiling: Unl
Heat Index: 81°   Visibility: 10mi
Dew Point: 65°   Wind: 3mph
Humidity: 62%   Direction: 30°NNE
Pressure: 29.92"   Gusts: NA
Location:  27.3823°N, 80.2604°W
Report Text: KFPR 222153Z 03003KT 10SM FEW030 26/18 A2992 RMK AO2 SLP132 T02610183
Loading
Personal Weather Stations






























Interactive Weather Map
Tropical Storm Tracking
New forecast layout! Learn more

10-Day Weather Forecast

Advertisements
Track Severe Weather on mobile